createdAt,value
2023-02-11T00:02:19.996Z,4.36
2023-02-11T00:04:52.412Z,4.31
2023-02-11T00:07:24.428Z,4.31
2023-02-11T00:09:56.937Z,4.30
2023-02-11T00:12:46.404Z,4.36
2023-02-11T00:15:37.379Z,4.49
2023-02-11T00:18:09.422Z,4.34
2023-02-11T00:20:44.999Z,4.53
2023-02-11T00:23:16.823Z,4.18
2023-02-11T00:25:49.888Z,4.36
2023-02-11T00:28:21.786Z,3.84
2023-02-11T00:31:04.076Z,4.01
2023-02-11T00:33:36.021Z,4.24
2023-02-11T00:36:10.975Z,4.31
2023-02-11T00:38:43.028Z,4.35
2023-02-11T00:41:16.315Z,4.57
2023-02-11T00:43:48.385Z,4.47
2023-02-11T00:46:24.600Z,4.75
2023-02-11T00:48:58.139Z,5.01
2023-02-11T00:51:31.808Z,4.59
2023-02-11T00:54:05.765Z,4.53
2023-02-11T00:56:38.321Z,4.58
2023-02-11T00:59:09.522Z,4.66
2023-02-11T01:01:45.121Z,4.47
2023-02-11T01:04:16.562Z,4.89
2023-02-11T01:06:49.694Z,4.46
2023-02-11T01:09:21.759Z,4.54
2023-02-11T01:11:56.443Z,4.64
2023-02-11T01:14:28.096Z,4.78
2023-02-11T01:17:05.903Z,4.88
2023-02-11T01:19:37.259Z,4.82
2023-02-11T01:22:09.129Z,5.11
2023-02-11T01:24:41.326Z,5.13
2023-02-11T01:27:17.680Z,5.08
2023-02-11T01:29:51.671Z,4.97
2023-02-11T01:32:26.507Z,4.79
2023-02-11T01:34:58.528Z,4.81
2023-02-11T01:37:33.088Z,4.78
2023-02-11T01:40:05.655Z,4.64
2023-02-11T01:42:38.100Z,4.41
2023-02-11T01:45:39.971Z,4.50
2023-02-11T01:48:17.262Z,4.77
2023-02-11T01:50:52.526Z,4.79
2023-02-11T01:54:06.563Z,4.87
2023-02-11T01:56:52.612Z,5.05
2023-02-11T01:59:30.905Z,5.29
2023-02-11T02:02:09.955Z,4.96
2023-02-11T02:05:01.194Z,4.91
2023-02-11T02:07:39.352Z,4.61
2023-02-11T02:10:17.487Z,4.96
2023-02-11T02:12:49.303Z,5.06
2023-02-11T02:15:30.758Z,5.20
2023-02-11T02:18:14.487Z,5.14
2023-02-11T02:21:22.259Z,5.06
2023-02-11T02:24:33.909Z,4.94
2023-02-11T02:27:26.920Z,5.37
2023-02-11T02:30:19.817Z,5.42
2023-02-11T02:33:20.561Z,5.42
2023-02-11T02:36:05.782Z,5.12
2023-02-11T02:38:42.577Z,4.96
2023-02-11T02:41:17.013Z,5.23
2023-02-11T02:43:51.204Z,5.03
2023-02-11T02:46:25.214Z,5.28
2023-02-11T02:49:00.708Z,5.13
2023-02-11T02:52:02.618Z,5.31
2023-02-11T02:55:00.540Z,5.18
2023-02-11T02:57:46.150Z,5.32
2023-02-11T03:00:37.328Z,5.33
2023-02-11T03:03:30.378Z,5.45
2023-02-11T03:06:11.011Z,5.52
2023-02-11T03:09:04.120Z,5.45
2023-02-11T03:11:40.754Z,5.32
2023-02-11T03:14:20.235Z,5.57
2023-02-11T03:16:57.965Z,5.39
2023-02-11T03:19:34.023Z,5.56
2023-02-11T03:22:14.224Z,5.66
2023-02-11T03:24:45.876Z,5.81
2023-02-11T03:27:24.950Z,5.30
2023-02-11T03:30:02.681Z,5.57
2023-02-11T03:32:38.969Z,5.95
2023-02-11T03:35:17.609Z,5.50
2023-02-11T03:37:57.524Z,5.49
2023-02-11T03:40:32.343Z,5.09
2023-02-11T03:43:11.483Z,5.33
2023-02-11T03:45:45.284Z,5.14
2023-02-11T03:48:22.622Z,5.66
2023-02-11T03:50:58.604Z,5.54
2023-02-11T03:53:32.867Z,5.58
2023-02-11T03:56:08.567Z,5.39
2023-02-11T03:58:41.645Z,5.24
2023-02-11T04:01:13.080Z,5.54
2023-02-11T04:03:45.103Z,5.35
2023-02-11T04:06:16.962Z,5.43
2023-02-11T04:09:04.264Z,4.86
2023-02-11T04:11:41.778Z,5.28
2023-02-11T04:14:17.256Z,5.72
2023-02-11T04:16:49.474Z,5.46
2023-02-11T04:19:21.166Z,5.43
2023-02-11T04:21:52.663Z,5.63
2023-02-11T04:24:28.442Z,5.47
2023-02-11T04:27:03.938Z,5.75
2023-02-11T04:29:35.635Z,5.80
2023-02-11T04:32:07.193Z,5.57
2023-02-11T04:34:38.933Z,5.27
2023-02-11T04:37:10.500Z,5.23
2023-02-11T04:39:44.739Z,5.14
2023-02-11T04:42:16.270Z,5.29
2023-02-11T04:44:48.128Z,5.13
2023-02-11T04:47:19.625Z,5.13
2023-02-11T04:52:49.335Z,5.65
2023-02-11T04:55:26.157Z,5.57
2023-02-11T04:57:57.828Z,5.12
2023-02-11T05:00:29.213Z,5.18
2023-02-11T05:03:00.401Z,5.60
2023-02-11T05:05:32.441Z,5.81
2023-02-11T05:08:03.690Z,5.84
2023-02-11T05:10:39.183Z,5.68
2023-02-11T05:13:10.449Z,5.80
2023-02-11T05:15:42.258Z,5.79
2023-02-11T05:18:15.036Z,5.92
2023-02-11T05:20:47.734Z,5.53
2023-02-11T05:23:20.452Z,5.52
2023-02-11T05:25:54.908Z,5.73
2023-02-11T05:28:26.435Z,5.73
2023-02-11T05:30:59.627Z,5.59
2023-02-11T05:33:31.480Z,5.66
2023-02-11T05:36:03.700Z,5.86
2023-02-11T05:38:36.660Z,5.48
2023-02-11T05:41:10.879Z,5.25
2023-02-11T05:43:44.971Z,5.50
2023-02-11T05:46:17.058Z,5.27
2023-02-11T05:48:48.749Z,5.04
2023-02-11T05:51:23.218Z,5.55
2023-02-11T05:53:54.343Z,5.96
2023-02-11T05:56:30.945Z,5.95
2023-02-11T05:59:02.860Z,5.54
2023-02-11T06:01:35.211Z,5.52
2023-02-11T06:04:06.424Z,5.61
2023-02-11T06:06:38.180Z,5.67
2023-02-11T06:09:10.215Z,5.74
2023-02-11T06:11:44.589Z,5.84
2023-02-11T06:14:16.772Z,6.07
2023-02-11T06:16:48.864Z,5.50
2023-02-11T06:19:20.591Z,5.61
2023-02-11T06:21:52.679Z,5.40
2023-02-11T06:24:47.759Z,5.01
2023-02-11T06:27:19.621Z,5.38
2023-02-11T06:29:52.684Z,5.42
2023-02-11T06:32:42.836Z,5.87
2023-02-11T06:35:15.747Z,5.56
2023-02-11T06:37:50.110Z,5.80
2023-02-11T06:40:22.578Z,5.92
2023-02-11T06:42:57.789Z,5.61
2023-02-11T06:45:29.754Z,5.84
2023-02-11T06:48:02.189Z,6.10
2023-02-11T06:50:34.456Z,6.16
2023-02-11T06:53:07.435Z,6.27
2023-02-11T06:55:39.568Z,6.46
2023-02-11T06:58:14.728Z,6.45
2023-02-11T07:00:46.803Z,6.01
2023-02-11T07:03:19.312Z,6.14
2023-02-11T07:05:51.894Z,6.28
2023-02-11T07:08:24.989Z,5.73
2023-02-11T07:10:57.179Z,5.93
2023-02-11T07:13:32.238Z,5.87
2023-02-11T07:16:08.525Z,6.05
2023-02-11T07:18:41.110Z,6.26
2023-02-11T07:21:16.706Z,6.10
2023-02-11T07:23:49.592Z,5.97
2023-02-11T07:26:24.347Z,6.25
2023-02-11T07:28:59.918Z,6.27
2023-02-11T07:31:33.947Z,6.20
2023-02-11T07:34:06.710Z,5.64
2023-02-11T07:36:38.828Z,5.56
2023-02-11T07:39:11.170Z,5.92
2023-02-11T07:41:43.268Z,6.29
2023-02-11T07:44:18.966Z,6.48
2023-02-11T07:46:51.031Z,6.02
2023-02-11T07:49:23.858Z,5.82
2023-02-11T07:51:55.937Z,6.11
2023-02-11T07:54:28.409Z,6.26
2023-02-11T12:16:45.620Z,6.90
2023-02-11T12:19:32.396Z,6.78
2023-02-11T12:22:13.021Z,6.95
2023-02-11T12:24:59.923Z,6.92
2023-02-11T12:27:47.580Z,6.90
2023-02-11T12:30:47.596Z,6.87
2023-02-11T12:33:31.127Z,6.89
2023-02-11T12:36:11.938Z,6.89
2023-02-11T12:39:01.140Z,6.55
2023-02-11T12:42:07.647Z,6.66
2023-02-11T12:44:59.178Z,6.94
2023-02-11T12:47:41.341Z,7.08
2023-02-11T12:50:20.739Z,6.96
2023-02-11T12:53:11.601Z,6.91
2023-02-11T12:55:50.282Z,6.90
2023-02-11T12:58:35.586Z,7.47
2023-02-11T13:01:22.524Z,7.33
2023-02-11T13:04:02.949Z,7.22
2023-02-11T13:06:43.104Z,7.67
2023-02-11T13:09:21.179Z,7.51
2023-02-11T13:11:54.789Z,7.33
2023-02-11T13:14:32.739Z,7.57
2023-02-11T13:17:09.211Z,7.35
2023-02-11T13:19:53.058Z,7.20
2023-02-11T13:22:35.000Z,7.38
2023-02-11T13:25:22.279Z,7.42
2023-02-11T13:28:02.538Z,7.26
2023-02-11T13:30:37.216Z,7.03
2023-02-11T13:33:34.140Z,7.04
2023-02-11T13:36:37.176Z,7.18
2023-02-11T13:39:10.198Z,7.58
2023-02-11T13:41:46.415Z,7.88
2023-02-11T13:44:38.856Z,7.92
2023-02-11T13:47:25.634Z,7.77
2023-02-11T13:49:57.856Z,7.57
2023-02-11T13:52:45.654Z,7.80
2023-02-11T13:55:27.798Z,7.38
2023-02-11T13:58:40.477Z,7.47
2023-02-11T14:01:12.630Z,7.19
2023-02-11T14:04:34.888Z,7.24
2023-02-11T14:07:43.969Z,7.32
2023-02-11T14:10:45.489Z,7.66
2023-02-11T14:13:28.363Z,7.14
2023-02-11T14:16:11.016Z,7.42
2023-02-11T14:19:03.431Z,7.19
2023-02-11T14:21:41.214Z,7.10
2023-02-11T14:24:48.773Z,7.15
2023-02-11T14:27:28.612Z,6.99
2023-02-11T14:30:33.275Z,7.07
2023-02-11T14:33:43.256Z,7.55
2023-02-11T14:36:30.181Z,7.45
2023-02-11T14:39:12.199Z,7.71
2023-02-11T14:41:46.645Z,7.20
2023-02-11T14:44:23.020Z,7.19
2023-02-11T14:46:59.700Z,7.11
2023-02-11T14:49:36.956Z,7.16
2023-02-11T14:52:20.158Z,7.20
2023-02-11T14:54:54.713Z,7.72
2023-02-11T14:57:28.537Z,8.18
2023-02-11T15:00:07.216Z,7.73
2023-02-11T15:03:04.362Z,7.53
2023-02-11T15:05:37.833Z,7.58
2023-02-11T15:08:20.685Z,7.47
2023-02-11T15:10:58.044Z,7.56
2023-02-11T15:13:34.095Z,7.39
2023-02-11T15:16:18.665Z,7.60
2023-02-11T15:18:57.873Z,7.36
2023-02-11T15:21:34.414Z,7.43
2023-02-11T15:24:08.897Z,7.75
2023-02-11T15:26:40.633Z,7.59
2023-02-11T15:29:23.137Z,7.85
2023-02-11T15:32:12.432Z,7.58
2023-02-11T15:34:54.035Z,7.37
2023-02-11T15:37:30.067Z,7.50
2023-02-11T15:40:14.756Z,7.74
2023-02-11T15:43:02.834Z,7.89
2023-02-11T15:45:38.313Z,7.60
2023-02-11T15:48:16.317Z,7.36
2023-02-11T15:50:59.161Z,7.52
2023-02-11T15:53:40.792Z,7.52
2023-02-11T15:56:27.671Z,7.57
2023-02-11T15:59:03.005Z,7.35
2023-02-11T16:01:39.894Z,7.80
2023-02-11T16:04:20.286Z,7.85
2023-02-11T16:06:57.122Z,7.86
2023-02-11T16:09:36.139Z,7.66
2023-02-11T16:12:30.856Z,7.67
2023-02-11T16:15:25.971Z,7.54
2023-02-11T16:17:57.901Z,7.61
2023-02-11T16:20:29.955Z,7.90
2023-02-11T16:23:06.824Z,7.87
2023-02-11T16:25:39.612Z,8.12
2023-02-11T16:28:18.641Z,7.97
2023-02-11T16:31:00.324Z,7.50
2023-02-11T16:40:23.983Z,7.60
2023-02-11T16:43:13.999Z,7.92
2023-02-11T16:45:55.008Z,8.23
2023-02-11T16:48:49.741Z,8.18
2023-02-11T16:51:22.286Z,8.24
2023-02-11T16:54:04.434Z,8.32
2023-02-11T16:57:06.775Z,8.46
2023-02-11T16:59:42.545Z,7.93
2023-02-11T17:02:41.356Z,7.71
2023-02-11T17:05:23.532Z,8.07
2023-02-11T17:08:00.767Z,8.47
2023-02-11T17:10:33.737Z,8.51
2023-02-11T17:13:08.295Z,8.66
2023-02-11T17:15:39.933Z,7.78
2023-02-11T17:18:15.841Z,8.20
2023-02-11T17:20:47.723Z,7.99
2023-02-11T17:23:19.723Z,7.99
2023-02-11T17:29:02.158Z,8.36
2023-02-11T17:31:35.005Z,8.70
2023-02-11T17:34:07.553Z,8.06
2023-02-11T17:36:41.852Z,8.13
2023-02-11T17:39:15.250Z,8.19
2023-02-11T17:41:48.255Z,8.36
2023-02-11T17:44:23.158Z,8.28
2023-02-11T17:46:55.891Z,8.32
2023-02-11T17:49:28.529Z,7.93
2023-02-11T17:52:01.157Z,7.85
2023-02-11T17:54:33.659Z,8.00
2023-02-11T17:57:06.474Z,8.15
2023-02-11T17:59:41.693Z,7.94
2023-02-11T18:02:15.401Z,8.06
2023-02-11T18:04:47.894Z,8.37
2023-02-11T18:07:20.596Z,8.60
2023-02-11T18:09:53.201Z,8.47
2023-02-11T18:12:28.532Z,8.69
2023-02-11T18:15:06.873Z,8.75
2023-02-11T18:17:39.953Z,8.42
2023-02-11T18:20:13.730Z,8.45
2023-02-11T18:22:46.392Z,8.62
2023-02-11T18:25:19.254Z,8.73
2023-02-11T18:27:51.921Z,8.54
2023-02-11T18:30:27.118Z,7.98
2023-02-11T18:32:59.824Z,8.13
2023-02-11T18:35:32.097Z,8.46
2023-02-11T18:38:08.564Z,8.57
2023-02-11T18:40:43.218Z,8.31
2023-02-11T18:43:15.457Z,8.59
2023-02-11T18:45:52.229Z,8.49
2023-02-11T18:48:24.738Z,8.56
2023-02-11T18:50:58.158Z,8.50
2023-02-11T18:53:30.541Z,8.58
2023-02-11T18:56:02.399Z,8.15
2023-02-11T18:58:34.558Z,8.40
2023-02-11T19:01:15.480Z,8.62
2023-02-11T19:03:48.561Z,7.92
2023-02-11T19:06:22.603Z,7.87
2023-02-11T19:08:58.990Z,8.08
2023-02-11T19:11:45.199Z,8.06
2023-02-11T19:14:21.142Z,7.71
2023-02-11T19:16:57.357Z,7.71
2023-02-11T19:19:31.615Z,8.05
2023-02-11T19:22:09.118Z,8.33
2023-02-11T19:24:42.386Z,8.21
2023-02-11T19:27:20.236Z,8.52
2023-02-11T19:30:11.017Z,8.45
2023-02-11T19:32:45.720Z,8.67
2023-02-11T19:35:17.937Z,8.78
2023-02-11T19:37:49.726Z,8.82
2023-02-11T19:40:22.556Z,8.74
2023-02-11T19:42:54.504Z,8.68
2023-02-11T19:45:27.167Z,8.41
2023-02-11T19:48:02.129Z,8.41
2023-02-11T19:50:34.407Z,8.38
2023-02-11T19:53:06.178Z,8.55
2023-02-11T19:55:38.717Z,8.69
2023-02-11T19:58:10.495Z,8.49
2023-02-11T20:00:43.197Z,8.40
2023-02-11T20:03:17.941Z,8.11
2023-02-11T20:05:50.845Z,8.45
2023-02-11T20:08:23.218Z,8.11
2023-02-11T20:10:55.402Z,8.38
2023-02-11T20:13:28.455Z,8.62
2023-02-11T20:16:00.815Z,8.56
2023-02-11T20:18:35.423Z,8.38
2023-02-11T20:21:10.861Z,8.42
2023-02-11T20:23:45.151Z,8.03
2023-02-11T20:26:19.893Z,8.25
2023-02-11T20:28:53.812Z,8.09
2023-02-11T20:31:27.177Z,8.33
2023-02-11T20:34:02.282Z,8.43
2023-02-11T20:36:38.572Z,8.37
2023-02-11T20:39:11.364Z,8.60
2023-02-11T20:41:46.370Z,8.67
2023-02-11T20:44:19.135Z,8.52
2023-02-11T20:46:51.807Z,8.79
2023-02-11T20:49:28.725Z,8.80
2023-02-11T20:52:01.307Z,8.80
2023-02-11T20:55:07.745Z,8.45
2023-02-11T20:57:39.879Z,8.51
2023-02-11T21:00:14.636Z,8.55
2023-02-11T21:02:54.918Z,8.68
2023-02-11T21:05:29.899Z,8.91
2023-02-11T21:08:02.864Z,8.84
2023-02-11T21:10:35.245Z,8.84
2023-02-11T21:13:07.845Z,9.01
2023-02-11T21:15:40.182Z,8.96
2023-02-11T21:18:13.754Z,8.49
2023-02-11T21:20:52.869Z,8.78
2023-02-11T21:23:26.350Z,8.36
2023-02-11T21:25:58.830Z,8.59
2023-02-11T21:28:31.570Z,8.76
2023-02-11T21:31:03.866Z,8.62
2023-02-11T21:33:36.793Z,8.52
2023-02-11T21:36:11.761Z,8.84
2023-02-11T21:38:43.815Z,8.67
2023-02-11T21:41:16.015Z,8.69
2023-02-11T21:43:49.194Z,8.80
2023-02-11T21:46:22.828Z,8.61
2023-02-11T21:48:55.088Z,8.54
2023-02-11T21:51:30.714Z,8.61
2023-02-11T21:54:03.995Z,8.69
2023-02-11T21:56:36.701Z,8.93
2023-02-11T21:59:09.006Z,8.91
2023-02-11T22:01:42.059Z,8.91
2023-02-11T22:04:14.534Z,8.83
2023-02-11T22:06:49.596Z,8.65
2023-02-11T22:09:21.776Z,8.78
2023-02-11T22:11:53.968Z,8.25
2023-02-11T22:14:26.055Z,8.08
2023-02-11T22:16:58.947Z,8.10
2023-02-11T22:19:32.921Z,8.39
2023-02-11T22:22:08.232Z,8.45
2023-02-11T22:24:40.948Z,8.41
2023-02-11T22:27:14.441Z,8.14
2023-02-11T22:29:46.100Z,8.34
2023-02-11T22:32:20.303Z,8.49
2023-02-11T22:34:53.405Z,8.56
2023-02-11T22:37:27.829Z,8.51
2023-02-11T22:39:59.820Z,8.49
2023-02-11T22:42:31.848Z,8.54
2023-02-11T22:45:03.773Z,8.29
2023-02-11T22:47:36.571Z,8.26
2023-02-11T22:50:09.815Z,8.32
2023-02-11T22:52:45.487Z,8.51
2023-02-11T22:55:17.805Z,8.66
2023-02-11T22:57:49.531Z,8.62
2023-02-11T23:00:24.820Z,8.79
2023-02-11T23:02:56.277Z,8.71
2023-02-11T23:05:29.356Z,8.80
2023-02-11T23:08:05.417Z,7.83
2023-02-11T23:10:45.928Z,8.12
2023-02-11T23:13:20.146Z,8.25
2023-02-11T23:15:51.890Z,8.28
2023-02-11T23:18:23.952Z,8.40
2023-02-11T23:20:56.139Z,8.61
2023-02-11T23:23:31.084Z,8.56
2023-02-11T23:26:06.486Z,8.42
2023-02-11T23:28:38.636Z,8.14
2023-02-11T23:31:19.678Z,8.52
2023-02-11T23:33:51.901Z,8.36
2023-02-11T23:36:24.760Z,7.83
2023-02-11T23:38:58.879Z,8.22
2023-02-11T23:41:32.118Z,8.49
2023-02-11T23:44:03.892Z,8.27
2023-02-11T23:46:36.250Z,8.11
2023-02-11T23:49:07.596Z,8.23
2023-02-11T23:51:39.275Z,8.19
2023-02-11T23:54:15.209Z,8.43
2023-02-11T23:56:47.300Z,8.52
2023-02-11T23:59:22.551Z,8.22
